Time;durP1;ratioP1;P1;durP2;ratioP2;P2;SDS_P1;SDS_P2;PMS_P1;PMS_P2;Temp;Humidity;BMP_temperature;BMP_pressure;BME280_temperature;BME280_humidity;BME280_pressure;Samples;Min_cycle;Max_cycle;Signal;HPM_P1;HPM_P2
2022/02/13 00:02:06;;;;;;;93.67;89.23;;;1.50;99.90;;;;;;4420026;32;20172;-61
2022/02/13 00:04:34;;;;;;;95.77;91.03;;;1.50;99.90;;;;;;4424850;32;20476;-60
2022/02/13 00:07:02;;;;;;;92.43;87.33;;;1.50;99.90;;;;;;4433531;32;20218;-58
2022/02/13 00:09:30;;;;;;;82.47;77.73;;;1.50;99.90;;;;;;4434061;32;20206;-59
2022/02/13 00:12:00;;;;;;;88.77;84.17;;;1.50;99.90;;;;;;4426736;32;20155;-58
2022/02/13 00:14:29;;;;;;;73.90;70.00;;;1.40;99.90;;;;;;4424447;32;20144;-59
2022/02/13 00:16:57;;;;;;;70.47;66.47;;;1.40;99.90;;;;;;4431790;32;20208;-59
2022/02/13 00:19:24;;;;;;;78.90;74.67;;;1.50;99.90;;;;;;4433112;32;20154;-60
2022/02/13 00:21:53;;;;;;;81.93;76.87;;;1.40;99.90;;;;;;4429981;32;20248;-62
2022/02/13 00:24:20;;;;;;;79.10;75.00;;;1.40;99.90;;;;;;4431344;32;20184;-61
2022/02/13 00:26:48;;;;;;;86.87;82.27;;;1.40;99.90;;;;;;4429879;32;20570;-60
2022/02/13 00:29:15;;;;;;;96.07;91.40;;;1.40;99.90;;;;;;4428580;32;20173;-60
2022/02/13 00:31:43;;;;;;;89.23;84.63;;;1.40;99.90;;;;;;4435101;32;20151;-59
2022/02/13 00:34:19;;;;;;;94.67;89.67;;;1.40;99.90;;;;;;4433447;32;20172;-62
2022/02/13 00:36:49;;;;;;;85.07;80.63;;;1.40;99.90;;;;;;4430652;32;20617;-61
2022/02/13 00:39:19;;;;;;;99.67;94.50;;;1.30;99.90;;;;;;4436084;32;20552;-60
2022/02/13 00:41:49;;;;;;;110.77;105.17;;;1.30;99.90;;;;;;4429389;32;20210;-60
2022/02/13 00:44:18;;;;;;;109.43;104.13;;;1.30;99.90;;;;;;4433916;32;20181;-61
2022/02/13 00:46:46;;;;;;;109.17;103.87;;;1.20;99.90;;;;;;4424703;32;20207;-60
2022/02/13 00:49:14;;;;;;;132.67;125.97;;;1.20;99.90;;;;;;4430339;32;20174;-59
2022/02/13 00:51:41;;;;;;;141.77;134.93;;;1.20;99.90;;;;;;4425484;32;20160;-61
2022/02/13 00:54:09;;;;;;;163.70;156.10;;;1.20;99.90;;;;;;4423172;32;20183;-59
2022/02/13 00:56:38;;;;;;;139.77;133.43;;;1.20;99.90;;;;;;4426235;32;20593;-62
2022/02/13 00:59:05;;;;;;;139.90;133.03;;;1.30;99.90;;;;;;4444875;32;20155;-61
2022/02/13 01:01:32;;;;;;;134.53;128.00;;;1.30;99.90;;;;;;4445202;32;20151;-61
2022/02/13 01:04:01;;;;;;;145.80;139.10;;;1.30;99.90;;;;;;4432220;32;20207;-59
2022/02/13 01:06:34;;;;;;;142.47;135.73;;;1.30;99.90;;;;;;4426380;32;20201;-62
2022/02/13 01:09:01;;;;;;;146.07;138.87;;;1.30;99.90;;;;;;4448293;32;20147;-60
2022/02/13 01:11:28;;;;;;;146.10;139.00;;;1.30;99.90;;;;;;4431046;32;20324;-59
2022/02/13 01:13:55;;;;;;;151.20;144.03;;;1.30;99.90;;;;;;4442707;32;20173;-59
2022/02/13 01:16:22;;;;;;;147.87;140.87;;;1.30;99.90;;;;;;4434817;32;20155;-59
2022/02/13 01:18:49;;;;;;;165.07;157.10;;;1.40;99.90;;;;;;4436609;32;20206;-59
2022/02/13 01:21:19;;;;;;;158.23;151.03;;;1.30;99.90;;;;;;4434748;32;20190;-59
2022/02/13 01:23:49;;;;;;;151.63;144.63;;;1.30;99.90;;;;;;4435146;32;20214;-60
2022/02/13 01:26:20;;;;;;;143.50;136.47;;;1.40;99.90;;;;;;4430537;32;20175;-59
2022/02/13 01:28:47;;;;;;;145.77;138.87;;;1.40;99.90;;;;;;4431557;32;20151;-60
2022/02/13 01:31:14;;;;;;;154.03;146.83;;;1.50;99.90;;;;;;4427226;32;20653;-59
2022/02/13 01:33:41;;;;;;;145.83;138.70;;;1.50;99.90;;;;;;4430743;32;20156;-59
2022/02/13 01:36:09;;;;;;;129.73;123.20;;;1.60;99.90;;;;;;4423332;32;20167;-59
2022/02/13 01:38:37;;;;;;;139.63;132.93;;;1.80;99.90;;;;;;4431192;32;20148;-59
2022/02/13 01:41:05;;;;;;;150.23;142.73;;;1.70;99.90;;;;;;4437035;32;20151;-59
2022/02/13 01:43:32;;;;;;;153.67;146.67;;;1.70;99.90;;;;;;4433304;32;20589;-59
2022/02/13 01:46:01;;;;;;;148.33;141.53;;;1.80;99.90;;;;;;4429555;32;20154;-59
2022/02/13 01:48:30;;;;;;;132.70;126.40;;;1.80;99.90;;;;;;4435017;32;20151;-59
2022/02/13 01:50:58;;;;;;;125.83;119.97;;;1.80;99.90;;;;;;4437536;32;20171;-59
2022/02/13 01:53:28;;;;;;;121.73;116.10;;;2.00;99.90;;;;;;4430660;32;20165;-59
2022/02/13 01:55:56;;;;;;;132.20;125.30;;;2.10;99.90;;;;;;4429356;32;20248;-60
2022/02/13 01:58:24;;;;;;;116.93;111.13;;;2.10;99.90;;;;;;4433233;32;20172;-60
2022/02/13 02:00:51;;;;;;;119.20;113.30;;;2.10;99.90;;;;;;4425153;32;20151;-59
2022/02/13 02:03:18;;;;;;;120.63;114.57;;;2.20;99.90;;;;;;4431617;32;20152;-60
2022/02/13 02:05:48;;;;;;;120.67;114.70;;;2.30;99.90;;;;;;4419779;32;20176;-60
2022/02/13 02:08:24;;;;;;;100.20;95.43;;;2.30;99.90;;;;;;4411252;32;20144;-60
2022/02/13 02:11:02;;;;;;;101.20;96.17;;;2.40;99.90;;;;;;4428493;32;20273;-60
2022/02/13 02:13:34;;;;;;;104.57;99.40;;;2.30;99.90;;;;;;4418351;32;20218;-59
2022/02/13 02:16:05;;;;;;;96.63;91.77;;;2.30;99.90;;;;;;4417108;32;20275;-59
2022/02/13 02:18:32;;;;;;;101.90;96.77;;;2.30;99.90;;;;;;4416519;32;20203;-59
2022/02/13 02:21:03;;;;;;;93.43;88.87;;;2.30;99.90;;;;;;4421306;32;20224;-60
2022/02/13 02:23:31;;;;;;;103.60;98.00;;;2.20;99.90;;;;;;4418150;32;20155;-59
2022/02/13 02:25:59;;;;;;;107.10;101.87;;;2.20;99.90;;;;;;4416671;32;20181;-59
2022/02/13 02:28:25;;;;;;;108.23;103.07;;;2.10;99.90;;;;;;4419345;32;20159;-60
2022/02/13 02:31:03;;;;;;;102.13;97.07;;;1.90;99.90;;;;;;4421683;32;20552;-59
2022/02/13 02:33:30;;;;;;;110.53;105.10;;;1.90;99.90;;;;;;4416255;32;20560;-60
2022/02/13 02:35:57;;;;;;;120.33;114.73;;;1.80;99.90;;;;;;4421854;32;20151;-58
2022/02/13 02:38:24;;;;;;;117.80;111.63;;;1.70;99.90;;;;;;4417307;32;20575;-60
2022/02/13 02:40:59;;;;;;;129.70;123.70;;;1.60;99.90;;;;;;4420701;32;20147;-58
2022/02/13 02:43:29;;;;;;;118.10;112.23;;;1.50;99.90;;;;;;4420620;32;20151;-59
2022/02/13 02:45:58;;;;;;;141.27;134.53;;;1.40;99.90;;;;;;4429344;32;20170;-58
2022/02/13 02:48:28;;;;;;;119.10;113.37;;;1.40;99.90;;;;;;4421502;32;20185;-59
2022/02/13 02:50:56;;;;;;;131.27;124.80;;;1.40;99.90;;;;;;4432663;32;20598;-59
2022/02/13 02:53:23;;;;;;;129.60;123.10;;;1.40;99.90;;;;;;4420934;32;20150;-59
2022/02/13 02:55:49;;;;;;;125.90;119.27;;;1.30;99.90;;;;;;4434064;32;20148;-59
2022/02/13 02:58:18;;;;;;;124.13;118.33;;;1.30;99.90;;;;;;4416947;32;20182;-58
2022/02/13 03:00:45;;;;;;;126.57;120.47;;;1.30;99.90;;;;;;4435437;32;20219;-59
2022/02/13 03:03:12;;;;;;;121.83;116.20;;;1.30;99.90;;;;;;4435958;32;20162;-59
2022/02/13 03:05:39;;;;;;;143.47;136.90;;;1.30;99.90;;;;;;4428967;32;20156;-59
2022/02/13 03:08:19;;;;;;;137.03;130.67;;;1.20;99.90;;;;;;4424198;32;20209;-59
2022/02/13 03:10:47;;;;;;;141.03;134.67;;;1.10;99.90;;;;;;4422931;32;20174;-58
2022/02/13 03:13:16;;;;;;;137.17;130.73;;;1.10;99.90;;;;;;4435766;32;20173;-59
2022/02/13 03:16:01;;;;;;;133.47;127.23;;;1.10;99.90;;;;;;4424146;32;20171;-58
2022/02/13 03:18:33;;;;;;;129.13;123.17;;;1.10;99.90;;;;;;4424837;32;20628;-59
2022/02/13 03:21:00;;;;;;;123.10;117.23;;;1.10;99.90;;;;;;4425410;32;20183;-59
2022/02/13 03:23:28;;;;;;;137.70;131.07;;;1.10;99.90;;;;;;4418634;32;20181;-58
2022/02/13 03:25:56;;;;;;;129.03;122.67;;;1.10;99.90;;;;;;4423656;32;20159;-59
2022/02/13 03:28:24;;;;;;;143.70;137.07;;;1.00;99.90;;;;;;4426379;32;20228;-59
2022/02/13 03:30:55;;;;;;;129.80;123.47;;;1.00;99.90;;;;;;4425379;32;20508;-61
2022/02/13 03:33:22;;;;;;;145.47;138.37;;;1.00;99.90;;;;;;4423907;32;20187;-61
2022/02/13 03:35:49;;;;;;;146.40;139.90;;;1.00;99.90;;;;;;4419857;32;20226;-60
2022/02/13 03:38:24;;;;;;;149.17;142.03;;;1.00;99.90;;;;;;4417643;32;20155;-60
2022/02/13 03:40:54;;;;;;;134.63;128.57;;;1.00;99.90;;;;;;4420256;32;20163;-59
2022/02/13 03:46:20;;;;;;;134.87;128.13;;;0.90;99.90;;;;;;4423803;32;20560;-60
2022/02/13 03:48:49;;;;;;;131.90;125.57;;;1.00;99.90;;;;;;4422129;32;20621;-59
2022/02/13 03:51:18;;;;;;;128.07;121.87;;;1.00;99.90;;;;;;4427092;32;20230;-59
2022/02/13 03:53:48;;;;;;;129.97;123.90;;;1.00;99.90;;;;;;4419564;32;20206;-60
2022/02/13 03:56:17;;;;;;;131.77;125.63;;;1.00;99.90;;;;;;4435105;32;20196;-60
2022/02/13 03:58:45;;;;;;;130.73;124.37;;;1.00;99.90;;;;;;4417694;32;20193;-59
2022/02/13 04:01:13;;;;;;;132.70;126.40;;;1.00;99.90;;;;;;4421515;32;20227;-60
2022/02/13 04:03:47;;;;;;;146.60;138.17;;;0.90;99.90;;;;;;4422519;32;20184;-58
2022/02/13 04:06:18;;;;;;;141.13;134.57;;;0.90;99.90;;;;;;4425430;32;20207;-58
2022/02/13 04:08:45;;;;;;;137.37;130.73;;;0.90;99.90;;;;;;4431553;32;20162;-60
2022/02/13 04:11:13;;;;;;;137.83;131.40;;;1.00;99.90;;;;;;4424583;32;20156;-59
2022/02/13 04:13:41;;;;;;;124.30;118.53;;;0.90;99.90;;;;;;4419915;32;20616;-61
2022/02/13 04:16:09;;;;;;;127.27;121.00;;;0.90;99.90;;;;;;4429728;32;20490;-60
2022/02/13 04:18:35;;;;;;;133.23;127.00;;;1.00;99.90;;;;;;4421763;32;20155;-61
2022/02/13 04:21:07;;;;;;;130.67;124.77;;;0.90;99.90;;;;;;4425660;32;20143;-61
2022/02/13 04:23:34;;;;;;;131.13;124.93;;;1.00;99.90;;;;;;4420837;32;20178;-60
2022/02/13 04:26:02;;;;;;;142.97;136.20;;;0.90;99.90;;;;;;4434433;32;20160;-60
2022/02/13 04:28:29;;;;;;;140.20;133.30;;;0.90;99.90;;;;;;4421392;32;20147;-60
2022/02/13 04:30:59;;;;;;;134.80;128.47;;;0.90;99.90;;;;;;4424603;32;20154;-60
2022/02/13 04:33:27;;;;;;;134.47;128.23;;;0.80;99.90;;;;;;4429220;32;20481;-61
2022/02/13 04:35:53;;;;;;;128.80;122.90;;;0.80;99.90;;;;;;4420451;32;20247;-61
2022/02/13 04:38:22;;;;;;;140.03;133.77;;;0.80;99.90;;;;;;4435647;32;20560;-60
2022/02/13 04:40:49;;;;;;;131.03;124.77;;;0.70;99.90;;;;;;4422331;32;20172;-60
2022/02/13 04:43:16;;;;;;;132.50;126.63;;;0.80;99.90;;;;;;4421105;32;20163;-60
2022/02/13 04:45:43;;;;;;;136.90;130.60;;;0.80;99.90;;;;;;4419377;32;20590;-59
2022/02/13 04:48:10;;;;;;;140.50;134.10;;;0.70;99.90;;;;;;4420504;32;20568;-59
2022/02/13 04:50:38;;;;;;;144.03;137.03;;;0.70;99.90;;;;;;4424765;32;20175;-59
2022/02/13 04:53:31;;;;;;;144.87;138.43;;;0.70;99.90;;;;;;4413710;32;20204;-59
2022/02/13 04:55:59;;;;;;;150.80;143.73;;;0.70;99.90;;;;;;4420427;32;20196;-60
2022/02/13 04:58:26;;;;;;;144.33;137.67;;;0.70;99.90;;;;;;4419731;32;20152;-60
2022/02/13 05:00:53;;;;;;;151.40;144.47;;;0.70;99.90;;;;;;4419980;32;20159;-60
2022/02/13 05:03:22;;;;;;;135.77;129.60;;;0.70;99.90;;;;;;4424192;32;20167;-59
2022/02/13 05:05:49;;;;;;;136.40;130.20;;;0.80;99.90;;;;;;4425748;32;20158;-60
2022/02/13 05:08:18;;;;;;;127.73;121.80;;;0.80;99.90;;;;;;4420263;32;20170;-60
2022/02/13 05:10:48;;;;;;;131.37;125.17;;;0.80;99.90;;;;;;4422726;32;20151;-60
2022/02/13 05:13:19;;;;;;;132.60;126.23;;;0.80;99.90;;;;;;4428981;32;20211;-58
2022/02/13 05:15:46;;;;;;;126.77;120.87;;;0.90;99.90;;;;;;4433376;32;20483;-60
2022/02/13 05:18:13;;;;;;;117.47;111.97;;;0.90;99.90;;;;;;4425419;32;20155;-60
2022/02/13 05:20:40;;;;;;;115.27;109.83;;;0.90;99.90;;;;;;4427434;32;20575;-59
2022/02/13 05:23:10;;;;;;;119.73;114.13;;;0.90;99.90;;;;;;4432365;32;20223;-61
2022/02/13 05:25:37;;;;;;;117.60;111.77;;;0.90;99.90;;;;;;4423946;32;20613;-59
2022/02/13 05:28:04;;;;;;;123.17;117.20;;;0.90;99.90;;;;;;4432676;32;20573;-60
2022/02/13 05:30:33;;;;;;;128.03;122.07;;;1.00;99.90;;;;;;4421332;32;20190;-59
2022/02/13 05:33:00;;;;;;;134.57;128.47;;;1.00;99.90;;;;;;4428729;32;20155;-61
2022/02/13 05:35:28;;;;;;;127.17;121.47;;;1.00;99.90;;;;;;4424341;32;20560;-61
2022/02/13 05:37:56;;;;;;;127.80;121.67;;;1.10;99.90;;;;;;4422444;32;20174;-58
2022/02/13 05:40:24;;;;;;;127.73;121.80;;;1.10;99.90;;;;;;4429483;32;20527;-61
2022/02/13 05:42:52;;;;;;;109.93;104.63;;;1.10;99.90;;;;;;4426590;32;20154;-61
2022/02/13 05:45:19;;;;;;;112.10;106.60;;;1.10;99.90;;;;;;4415925;32;20508;-60
2022/02/13 05:47:50;;;;;;;123.90;118.03;;;1.10;99.90;;;;;;4415577;32;20151;-58
2022/02/13 05:50:17;;;;;;;123.03;117.23;;;1.00;99.90;;;;;;4428842;32;20479;-59
2022/02/13 05:52:47;;;;;;;130.23;124.20;;;1.00;99.90;;;;;;4427679;32;20186;-61
2022/02/13 05:55:21;;;;;;;125.80;119.90;;;1.00;99.90;;;;;;4431491;32;20241;-60
2022/02/13 05:57:48;;;;;;;125.90;119.90;;;1.00;99.90;;;;;;4423978;32;20150;-59
2022/02/13 06:00:18;;;;;;;123.40;117.87;;;1.00;99.90;;;;;;4423953;32;20174;-60
2022/02/13 06:02:51;;;;;;;128.83;122.77;;;1.00;99.90;;;;;;4432715;32;20206;-58
2022/02/13 06:05:18;;;;;;;129.23;123.17;;;1.00;99.90;;;;;;4429669;32;20182;-58
2022/02/13 06:07:45;;;;;;;128.13;122.30;;;1.00;99.90;;;;;;4423539;32;20532;-61
2022/02/13 06:10:13;;;;;;;128.87;122.83;;;0.90;99.90;;;;;;4423713;32;20164;-60
2022/02/13 06:12:41;;;;;;;134.37;128.17;;;1.00;99.90;;;;;;4426387;32;20178;-60
2022/02/13 06:15:09;;;;;;;134.00;127.80;;;1.00;99.90;;;;;;4424963;32;20147;-59
2022/02/13 06:17:41;;;;;;;137.50;131.27;;;0.90;99.90;;;;;;4419845;32;20810;-58
2022/02/13 06:20:11;;;;;;;132.83;126.30;;;0.90;99.90;;;;;;4421697;32;20600;-59
2022/02/13 06:22:41;;;;;;;139.27;133.03;;;0.90;99.90;;;;;;4418090;32;20172;-61
2022/02/13 06:25:19;;;;;;;120.00;114.50;;;0.90;99.90;;;;;;4426945;32;20156;-61
2022/02/13 06:27:49;;;;;;;124.80;119.00;;;1.00;99.90;;;;;;4422403;32;20200;-59
2022/02/13 06:30:20;;;;;;;122.80;116.57;;;1.00;99.90;;;;;;4420783;32;20160;-62
2022/02/13 06:32:50;;;;;;;120.37;114.93;;;1.00;99.90;;;;;;4425615;32;20155;-60
2022/02/13 06:35:26;;;;;;;136.97;130.47;;;1.00;99.90;;;;;;4430583;32;20151;-61
2022/02/13 06:38:01;;;;;;;149.13;142.07;;;1.10;99.90;;;;;;4435201;32;20268;-60
2022/02/13 06:40:29;;;;;;;145.57;138.63;;;1.10;99.90;;;;;;4430442;32;20637;-60
2022/02/13 06:42:58;;;;;;;151.80;144.93;;;1.20;99.90;;;;;;4406992;32;20219;-60
2022/02/13 06:45:25;;;;;;;140.27;134.10;;;1.30;99.90;;;;;;4418866;32;20178;-58
2022/02/13 06:47:54;;;;;;;144.17;137.53;;;1.30;99.90;;;;;;4416519;32;20159;-60
2022/02/13 06:50:23;;;;;;;141.40;134.63;;;1.30;99.90;;;;;;4426587;32;20160;-60
2022/02/13 06:52:50;;;;;;;141.80;135.30;;;1.30;99.90;;;;;;4418944;32;20171;-59
2022/02/13 06:55:17;;;;;;;145.80;139.27;;;1.30;99.90;;;;;;4420996;32;20460;-59
2022/02/13 06:57:44;;;;;;;145.13;138.87;;;1.30;99.90;;;;;;4420427;32;20191;-61
2022/02/13 07:00:13;;;;;;;138.47;132.00;;;1.30;99.90;;;;;;4412637;32;20599;-60
2022/02/13 07:02:40;;;;;;;142.87;136.30;;;1.30;99.90;;;;;;4413513;32;20174;-60
2022/02/13 07:05:08;;;;;;;146.20;139.77;;;1.20;99.90;;;;;;4421066;32;20532;-60
2022/02/13 07:07:36;;;;;;;147.50;140.80;;;1.30;99.90;;;;;;4421761;32;20183;-60
2022/02/13 07:10:05;;;;;;;147.60;140.70;;;1.40;99.90;;;;;;4412010;32;20187;-60
2022/02/13 07:12:32;;;;;;;145.50;139.23;;;1.50;99.90;;;;;;4413155;32;20155;-61
2022/02/13 07:14:59;;;;;;;135.00;128.77;;;1.60;99.90;;;;;;4419539;32;20250;-61
2022/02/13 07:17:26;;;;;;;134.20;127.93;;;1.70;99.90;;;;;;4417717;32;20247;-61
2022/02/13 07:19:56;;;;;;;133.57;127.30;;;1.80;99.90;;;;;;4413720;32;20583;-59
2022/02/13 07:22:24;;;;;;;127.73;121.73;;;1.90;99.90;;;;;;4417132;32;20189;-59
2022/02/13 07:24:55;;;;;;;133.43;126.90;;;2.00;99.90;;;;;;4413428;32;20458;-59
2022/02/13 07:27:25;;;;;;;130.57;124.20;;;2.10;99.90;;;;;;4413002;32;20155;-59
2022/02/13 07:29:58;;;;;;;129.27;123.37;;;2.10;99.90;;;;;;4413424;32;20151;-57
2022/02/13 07:32:25;;;;;;;126.93;120.67;;;2.20;99.90;;;;;;4418725;32;20212;-61
2022/02/13 07:34:53;;;;;;;132.40;126.27;;;2.30;99.90;;;;;;4416656;32;20160;-59
2022/02/13 07:37:19;;;;;;;123.67;118.07;;;2.30;99.90;;;;;;4417182;32;20273;-62
2022/02/13 07:40:05;;;;;;;129.07;123.17;;;2.40;99.90;;;;;;4418029;32;20210;-58
2022/02/13 07:42:48;;;;;;;109.00;104.17;;;2.50;99.90;;;;;;4408376;32;20201;-59
2022/02/13 07:45:17;;;;;;;114.50;109.20;;;2.50;99.90;;;;;;4408130;32;20148;-59
2022/02/13 07:47:47;;;;;;;119.73;113.53;;;2.50;99.90;;;;;;4412440;32;20616;-59
2022/02/13 07:50:14;;;;;;;105.07;100.20;;;2.60;99.90;;;;;;4411766;32;20617;-58
2022/02/13 07:52:41;;;;;;;111.50;106.03;;;2.60;99.90;;;;;;4415271;32;20159;-60
2022/02/13 07:55:12;;;;;;;113.40;108.07;;;2.60;99.90;;;;;;4415325;32;20166;-59
2022/02/13 07:57:41;;;;;;;108.30;103.30;;;2.70;99.90;;;;;;4409793;32;20220;-58
2022/02/13 08:00:09;;;;;;;101.93;97.20;;;2.80;99.90;;;;;;4398815;32;20180;-61
2022/02/13 08:02:38;;;;;;;107.57;102.60;;;2.90;99.90;;;;;;4339699;32;2513019;-60
2022/02/13 08:05:14;;;;;;;109.33;104.37;;;3.00;99.90;;;;;;4417596;32;20687;-61
2022/02/13 08:07:46;;;;;;;107.23;102.33;;;3.00;99.90;;;;;;4417147;32;20576;-59
2022/02/13 08:10:23;;;;;;;104.23;99.30;;;3.20;99.90;;;;;;4419169;32;20163;-61
2022/02/13 08:12:55;;;;;;;95.87;91.37;;;3.20;99.90;;;;;;4417821;32;20163;-59
2022/02/13 08:15:23;;;;;;;105.00;100.03;;;3.30;99.90;;;;;;4417297;32;20197;-59
2022/02/13 08:17:50;;;;;;;99.67;94.87;;;3.30;99.90;;;;;;4419377;32;20157;-59
2022/02/13 08:20:17;;;;;;;100.40;95.47;;;3.40;99.90;;;;;;4420694;32;20207;-59
2022/02/13 08:22:43;;;;;;;93.50;89.17;;;3.50;99.90;;;;;;4422698;32;20238;-58
2022/02/13 08:25:13;;;;;;;100.77;95.90;;;3.60;99.90;;;;;;4422682;32;20245;-60
2022/02/13 08:27:44;;;;;;;96.50;92.20;;;3.60;99.90;;;;;;4420110;32;20202;-61
2022/02/13 08:30:12;;;;;;;95.50;91.17;;;3.70;99.90;;;;;;4418089;32;20155;-60
2022/02/13 08:32:39;;;;;;;104.23;99.37;;;3.80;99.90;;;;;;4418672;32;20148;-59
2022/02/13 08:35:07;;;;;;;107.13;102.37;;;3.90;99.90;;;;;;4417732;32;20226;-60
2022/02/13 08:37:40;;;;;;;101.83;97.33;;;4.00;99.90;;;;;;4418736;32;20171;-60
2022/02/13 08:40:25;;;;;;;117.10;111.77;;;4.10;99.90;;;;;;4420214;32;20181;-59
2022/02/13 08:42:58;;;;;;;105.33;100.47;;;4.20;99.90;;;;;;4417716;32;20151;-60
2022/02/13 08:45:25;;;;;;;109.60;104.57;;;4.30;99.90;;;;;;4418060;32;20227;-59
2022/02/13 08:47:56;;;;;;;115.53;110.20;;;4.30;99.90;;;;;;4420830;32;20178;-59
2022/02/13 08:50:23;;;;;;;118.80;113.43;;;4.30;99.90;;;;;;4422212;32;20155;-61
2022/02/13 08:52:50;;;;;;;112.10;106.73;;;4.50;99.90;;;;;;4423445;32;20157;-60
2022/02/13 08:55:17;;;;;;;114.27;108.90;;;4.60;99.90;;;;;;4421942;32;20200;-59
2022/02/13 08:57:45;;;;;;;109.77;104.43;;;4.70;99.90;;;;;;4422614;32;20163;-59
2022/02/13 09:00:18;;;;;;;111.10;105.87;;;4.60;99.90;;;;;;4420120;32;20223;-61
2022/02/13 09:02:49;;;;;;;110.93;105.50;;;4.60;99.90;;;;;;4409570;32;20572;-63
2022/02/13 09:05:17;;;;;;;111.23;106.27;;;4.80;99.90;;;;;;4408247;32;20174;-59
2022/02/13 09:07:44;;;;;;;103.63;98.80;;;4.80;99.90;;;;;;4415400;32;20163;-59
2022/02/13 09:10:13;;;;;;;108.30;102.97;;;4.90;99.90;;;;;;4408949;32;20610;-60
2022/02/13 09:12:45;;;;;;;103.20;98.50;;;5.00;99.90;;;;;;4407072;32;20152;-59
2022/02/13 09:15:14;;;;;;;99.50;94.40;;;5.20;99.90;;;;;;4402008;32;20190;-61
2022/02/13 09:17:46;;;;;;;107.63;102.53;;;5.10;99.90;;;;;;4399738;32;20176;-59
2022/02/13 09:20:13;;;;;;;97.73;92.93;;;5.10;99.90;;;;;;4402975;32;20178;-62
2022/02/13 09:22:40;;;;;;;98.03;93.43;;;5.30;99.90;;;;;;4406310;32;20174;-60
2022/02/13 09:25:08;;;;;;;89.60;85.40;;;5.50;99.90;;;;;;4400342;32;20156;-60
2022/02/13 09:27:37;;;;;;;70.97;67.47;;;5.60;99.90;;;;;;4401250;32;20199;-58
2022/02/13 09:30:15;;;;;;;68.23;64.87;;;5.70;99.90;;;;;;4402789;32;20457;-60
2022/02/13 09:32:56;;;;;;;67.20;63.67;;;5.80;99.90;;;;;;4400560;32;20144;-60
2022/02/13 09:35:25;;;;;;;68.33;65.03;;;6.00;99.90;;;;;;4402732;32;20152;-59
2022/02/13 09:38:09;;;;;;;59.87;56.90;;;6.20;99.90;;;;;;4398859;32;20148;-59
2022/02/13 09:40:36;;;;;;;69.67;66.20;;;6.10;99.90;;;;;;4405795;32;20626;-59
2022/02/13 09:43:04;;;;;;;73.17;69.47;;;6.20;99.90;;;;;;4402841;32;20167;-59
2022/02/13 09:45:33;;;;;;;73.43;69.57;;;6.20;99.90;;;;;;4408755;32;20187;-60
2022/02/13 09:48:02;;;;;;;68.83;65.17;;;6.20;99.90;;;;;;4405959;32;20179;-60
2022/02/13 09:50:30;;;;;;;68.60;65.13;;;6.30;99.90;;;;;;4400681;32;20156;-61
2022/02/13 09:52:57;;;;;;;75.27;71.40;;;6.30;99.90;;;;;;4406964;32;20167;-62
2022/02/13 09:55:26;;;;;;;91.47;87.07;;;6.30;99.90;;;;;;4401417;32;20160;-60
2022/02/13 09:58:03;;;;;;;71.40;67.40;;;6.20;99.90;;;;;;4402933;32;20152;-60
2022/02/13 10:00:55;;;;;;;76.13;72.53;;;6.20;99.90;;;;;;4409664;32;20181;-60
2022/02/13 10:03:25;;;;;;;70.87;67.47;;;6.10;99.90;;;;;;4355937;33;20157;-61
2022/02/13 10:06:04;;;;;;;79.13;75.10;;;6.00;99.90;;;;;;4359818;32;20488;-61
2022/02/13 10:08:36;;;;;;;78.10;74.40;;;6.00;99.90;;;;;;4363927;32;20195;-61
2022/02/13 10:11:10;;;;;;;89.50;85.13;;;6.00;99.90;;;;;;4358692;32;20236;-59
2022/02/13 10:13:59;;;;;;;84.50;80.40;;;6.10;99.90;;;;;;4364859;32;20206;-59
2022/02/13 10:16:28;;;;;;;83.77;79.63;;;6.00;99.90;;;;;;4321682;33;20239;-59
2022/02/13 10:18:59;;;;;;;92.07;87.73;;;6.00;99.90;;;;;;4319965;33;20170;-60
2022/02/13 10:21:44;;;;;;;95.93;91.33;;;6.00;99.90;;;;;;4315162;33;20212;-61
2022/02/13 10:24:36;;;;;;;90.50;86.13;;;5.90;99.90;;;;;;4314795;33;20157;-60
2022/02/13 10:27:13;;;;;;;92.50;87.70;;;5.90;99.90;;;;;;4312260;33;20158;-60
2022/02/13 10:29:43;;;;;;;89.97;85.70;;;6.00;99.90;;;;;;4310439;33;20197;-60
2022/02/13 10:35:04;;;;;;;93.90;89.57;;;5.90;99.90;;;;;;4314255;33;20234;-59
2022/02/13 10:37:51;;;;;;;87.30;83.10;;;6.00;99.90;;;;;;4314057;33;20212;-61
2022/02/13 10:40:24;;;;;;;95.07;90.77;;;6.10;99.90;;;;;;4331761;32;20165;-60
2022/02/13 10:43:02;;;;;;;89.60;85.37;;;6.10;99.90;;;;;;4354817;32;20164;-61
2022/02/13 10:45:31;;;;;;;99.87;95.13;;;6.20;99.90;;;;;;4361971;32;20168;-60
2022/02/13 10:48:00;;;;;;;105.07;100.33;;;6.20;99.90;;;;;;4360871;32;20254;-59
2022/02/13 10:50:30;;;;;;;100.70;96.03;;;6.30;99.90;;;;;;4361918;32;20185;-60
2022/02/13 10:52:59;;;;;;;107.67;102.70;;;6.40;99.90;;;;;;4366735;32;20193;-60
2022/02/13 10:55:26;;;;;;;106.07;100.87;;;6.40;99.90;;;;;;4400000;32;20201;-60
2022/02/13 10:58:04;;;;;;;112.50;107.53;;;6.40;99.90;;;;;;4402060;32;20149;-60
2022/02/13 11:00:32;;;;;;;101.97;97.37;;;6.40;99.90;;;;;;4408342;32;20937;-61
2022/02/13 11:03:07;;;;;;;101.97;97.47;;;6.40;99.90;;;;;;4413605;32;20155;-60
2022/02/13 11:05:38;;;;;;;106.20;101.27;;;6.40;99.90;;;;;;4415250;32;20587;-60
2022/02/13 11:08:10;;;;;;;104.60;99.90;;;6.40;99.90;;;;;;4418940;32;20148;-60
2022/02/13 11:10:42;;;;;;;100.30;95.90;;;6.50;99.90;;;;;;4415280;32;20689;-60
2022/02/13 11:13:11;;;;;;;115.30;109.30;;;6.50;99.90;;;;;;4413402;32;20620;-60
2022/02/13 11:15:42;;;;;;;108.00;103.17;;;6.60;99.90;;;;;;4412304;32;20675;-60
2022/02/13 11:18:10;;;;;;;115.47;110.10;;;6.70;99.90;;;;;;4412787;32;20156;-60
2022/02/13 11:20:38;;;;;;;131.63;125.80;;;6.70;99.90;;;;;;4418637;32;20168;-60
2022/02/13 11:23:21;;;;;;;120.67;115.20;;;6.70;99.90;;;;;;4421033;32;20151;-60
2022/02/13 11:25:56;;;;;;;108.17;103.07;;;6.80;99.90;;;;;;4420109;32;20206;-60
2022/02/13 11:28:27;;;;;;;124.10;118.67;;;6.80;99.90;;;;;;4414114;32;20532;-60
2022/02/13 11:31:00;;;;;;;121.83;116.53;;;6.90;99.90;;;;;;4425278;32;20215;-60
2022/02/13 11:33:44;;;;;;;138.43;132.43;;;7.00;99.90;;;;;;4426892;32;20494;-60
2022/02/13 11:36:14;;;;;;;115.33;110.10;;;7.10;99.90;;;;;;4417892;32;20535;-61
2022/02/13 11:38:56;;;;;;;128.20;122.63;;;7.20;99.90;;;;;;4430340;32;20172;-60
2022/02/13 11:42:09;;;;;;;123.67;117.97;;;7.30;99.90;;;;;;4425314;32;20204;-59
2022/02/13 11:45:01;;;;;;;120.43;114.90;;;7.40;99.90;;;;;;4415674;32;20145;-60
2022/02/13 11:47:41;;;;;;;131.03;124.97;;;7.40;99.90;;;;;;4419947;32;20236;-59
2022/02/13 11:50:24;;;;;;;139.97;133.80;;;7.60;99.90;;;;;;4418068;32;20213;-59
2022/02/13 11:53:03;;;;;;;150.53;143.97;;;7.60;99.90;;;;;;4411624;32;20178;-60
2022/02/13 11:55:57;;;;;;;149.13;142.33;;;7.60;99.90;;;;;;4406867;32;20216;-59
2022/02/13 11:58:41;;;;;;;158.73;151.90;;;7.70;99.90;;;;;;4405547;32;20173;-60
2022/02/13 12:01:39;;;;;;;162.13;155.40;;;7.90;99.90;;;;;;4406952;32;20195;-60
2022/02/13 12:07:00;;;;;;;159.83;152.90;;;8.10;99.90;;;;;;4406078;32;20256;-59
2022/02/13 12:09:57;;;;;;;205.17;196.60;;;8.20;99.90;;;;;;4409882;32;20174;-59
2022/02/13 12:12:29;;;;;;;207.50;198.90;;;8.30;99.90;;;;;;4409450;32;20204;-59
2022/02/13 12:14:56;;;;;;;194.23;185.67;;;8.30;99.90;;;;;;4411773;32;20215;-60
2022/02/13 12:17:32;;;;;;;214.60;205.27;;;8.30;99.90;;;;;;4415706;32;20261;-60
2022/02/13 12:23:06;;;;;;;207.57;198.73;;;8.40;99.90;;;;;;4361282;32;20658;-59
2022/02/13 12:25:48;;;;;;;205.20;196.27;;;8.60;99.90;;;;;;4369302;32;20642;-59
2022/02/13 12:28:18;;;;;;;226.87;217.37;;;8.50;99.90;;;;;;4365726;32;20171;-61
2022/02/13 12:31:10;;;;;;;232.53;222.63;;;8.60;99.90;;;;;;4366761;32;20183;-59
2022/02/13 12:33:49;;;;;;;223.40;213.97;;;8.70;99.90;;;;;;4365131;32;20202;-59
2022/02/13 12:36:23;;;;;;;218.53;209.60;;;8.80;99.90;;;;;;4360295;32;20208;-60
2022/02/13 12:38:55;;;;;;;239.00;228.83;;;8.90;99.90;;;;;;4364847;32;20181;-61
2022/02/13 12:41:25;;;;;;;247.53;237.30;;;8.80;99.90;;;;;;4368769;32;20178;-61
2022/02/13 12:43:55;;;;;;;246.07;235.73;;;8.80;99.90;;;;;;4367858;32;20561;-60
2022/02/13 12:46:23;;;;;;;250.17;239.70;;;8.70;99.90;;;;;;4373071;32;20201;-59
2022/02/13 12:48:56;;;;;;;270.87;259.57;;;8.60;99.90;;;;;;4369289;32;20235;-62
2022/02/13 12:51:29;;;;;;;268.50;257.47;;;8.70;99.90;;;;;;4373943;32;20207;-60